createdAt,value
2022-08-03T00:01:36.970Z,100519.91
2022-08-03T00:04:39.508Z,100525.53
2022-08-03T00:07:41.784Z,100521.22
2022-08-03T00:10:44.388Z,100519.97
2022-08-03T00:13:49.359Z,100519.66
2022-08-03T00:16:51.939Z,100522.72
2022-08-03T00:19:54.221Z,100527.50
2022-08-03T00:22:56.808Z,100526.97
2022-08-03T00:25:59.156Z,100518.63
2022-08-03T00:29:02.448Z,100524.97
2022-08-03T00:32:04.848Z,100535.09
2022-08-03T00:35:09.868Z,100539.13
2022-08-03T00:38:14.812Z,100532.03
2022-08-03T00:41:17.374Z,100543.47
2022-08-03T00:44:19.633Z,100535.00
2022-08-03T00:47:22.181Z,100541.75
2022-08-03T00:50:25.716Z,100544.59
2022-08-03T00:53:28.628Z,100543.44
2022-08-03T00:56:30.906Z,100540.16
2022-08-03T00:59:33.584Z,100539.09
2022-08-03T01:02:36.063Z,100544.31
2022-08-03T01:05:58.849Z,100546.53
2022-08-03T01:09:09.326Z,100546.59
2022-08-03T01:12:22.787Z,100547.78
2022-08-03T01:15:46.492Z,100549.03
2022-08-03T01:19:07.912Z,100558.53
2022-08-03T01:22:24.334Z,100550.75
2022-08-03T01:25:39.869Z,100561.69
2022-08-03T01:28:58.786Z,100556.31
2022-08-03T01:33:02.616Z,100553.13
2022-08-03T01:35:28.138Z,100555.97
2022-08-03T01:38:35.878Z,100558.28
2022-08-03T01:41:42.560Z,100556.03
2022-08-03T01:44:48.844Z,100550.44
2022-08-03T01:47:51.859Z,100555.91
2022-08-03T01:50:55.977Z,100559.72
2022-08-03T01:54:00.218Z,100554.22
2022-08-03T01:57:03.257Z,100557.72
2022-08-03T02:00:07.434Z,100549.37
2022-08-03T02:03:15.591Z,100545.44
2022-08-03T02:07:00.330Z,100555.87
2022-08-03T02:09:44.468Z,100550.00
2022-08-03T02:12:51.034Z,100549.75
2022-08-03T02:15:54.567Z,100545.53
2022-08-03T02:18:58.283Z,100555.31
2022-08-03T02:22:01.920Z,100560.28
2022-08-03T02:25:05.858Z,100555.50
2022-08-03T02:28:10.531Z,100550.34
2022-08-03T02:31:15.647Z,100550.41
2022-08-03T02:34:21.058Z,100548.63
2022-08-03T02:37:27.344Z,100556.44
2022-08-03T02:40:31.434Z,100558.31
2022-08-03T02:43:39.185Z,100559.97
2022-08-03T02:47:03.628Z,100562.72
2022-08-03T02:50:07.917Z,100557.44
2022-08-03T02:53:11.700Z,100566.09
2022-08-03T02:56:15.579Z,100564.38
2022-08-03T02:59:19.096Z,100566.75
2022-08-03T03:02:22.340Z,100561.56
2022-08-03T03:05:54.652Z,100570.44
2022-08-03T03:08:48.758Z,100568.06
2022-08-03T03:11:52.296Z,100563.00
2022-08-03T03:14:54.903Z,100563.31
2022-08-03T03:17:58.108Z,100566.13
2022-08-03T03:21:02.096Z,100576.66
2022-08-03T03:24:05.217Z,100570.66
2022-08-03T03:27:08.210Z,100571.78
2022-08-03T03:30:10.899Z,100565.84
2022-08-03T03:33:14.099Z,100573.03
2022-08-03T03:36:16.446Z,100575.75
2022-08-03T03:39:19.010Z,100566.16
2022-08-03T03:42:21.557Z,100572.91
2022-08-03T03:45:24.233Z,100572.72
2022-08-03T03:48:26.945Z,100572.72
2022-08-03T03:51:29.530Z,100570.09
2022-08-03T03:54:44.956Z,100572.63
2022-08-03T03:57:47.463Z,100578.56
2022-08-03T04:00:50.086Z,100577.59
2022-08-03T04:03:52.726Z,100571.22
2022-08-03T04:07:13.837Z,100577.31
2022-08-03T04:10:37.931Z,100582.38
2022-08-03T04:13:45.131Z,100576.75
2022-08-03T04:16:50.128Z,100585.13
2022-08-03T04:19:53.799Z,100590.00
2022-08-03T04:22:57.536Z,100601.75
2022-08-03T04:26:01.178Z,100603.50
2022-08-03T04:29:04.470Z,100595.50
2022-08-03T04:32:08.108Z,100601.69
2022-08-03T04:35:10.847Z,100602.66
2022-08-03T04:38:14.436Z,100599.97
2022-08-03T04:41:17.818Z,100597.00
2022-08-03T04:44:21.844Z,100599.84
2022-08-03T04:47:33.028Z,100608.41
2022-08-03T04:50:35.868Z,100608.91
2022-08-03T04:53:39.366Z,100617.06
2022-08-03T04:56:42.044Z,100613.87
2022-08-03T04:59:45.169Z,100622.34
2022-08-03T05:02:47.744Z,100629.12
2022-08-03T05:05:50.901Z,100630.06
2022-08-03T05:08:53.386Z,100632.78
2022-08-03T05:11:56.171Z,100632.97
2022-08-03T05:14:58.605Z,100634.38
2022-08-03T05:18:01.167Z,100633.13
2022-08-03T05:21:04.967Z,100639.66
2022-08-03T05:24:07.563Z,100640.97
2022-08-03T05:27:10.803Z,100646.81
2022-08-03T05:30:29.744Z,100650.13
2022-08-03T05:33:36.155Z,100653.16
2022-08-03T05:36:39.678Z,100650.03
2022-08-03T05:39:42.011Z,100654.53
2022-08-03T05:42:44.552Z,100662.34
2022-08-03T05:45:46.866Z,100658.59
2022-08-03T05:49:09.542Z,100659.56
2022-08-03T05:52:13.504Z,100665.34
2022-08-03T05:55:19.065Z,100658.44
2022-08-03T05:58:21.594Z,100661.94
2022-08-03T06:01:24.230Z,100667.28
2022-08-03T06:04:26.866Z,100664.00
2022-08-03T06:07:29.199Z,100668.13
2022-08-03T06:10:37.242Z,100672.09
2022-08-03T06:13:40.852Z,100662.84
2022-08-03T06:16:43.506Z,100673.75
2022-08-03T06:19:45.867Z,100679.06
2022-08-03T06:22:51.130Z,100674.00
2022-08-03T06:26:03.091Z,100675.09
2022-08-03T06:29:06.050Z,100674.34
2022-08-03T06:32:12.250Z,100668.28
2022-08-03T06:35:14.842Z,100670.53
2022-08-03T06:38:17.164Z,100685.31
2022-08-03T06:41:19.919Z,100676.19
2022-08-03T06:44:22.276Z,100673.75
2022-08-03T06:47:25.272Z,100675.47
2022-08-03T06:50:27.707Z,100677.78
2022-08-03T06:53:30.413Z,100678.97
2022-08-03T06:56:32.711Z,100686.00
2022-08-03T07:00:07.494Z,100678.28
2022-08-03T07:02:58.370Z,100679.22
2022-08-03T07:06:01.320Z,100682.69
2022-08-03T07:09:05.911Z,100693.31
2022-08-03T07:12:08.633Z,100688.25
2022-08-03T07:15:20.537Z,100678.59
2022-08-03T07:18:33.944Z,100692.88
2022-08-03T07:21:36.383Z,100688.88
2022-08-03T07:24:38.931Z,100692.72
2022-08-03T07:27:50.047Z,100687.41
2022-08-03T07:30:54.384Z,100687.13
2022-08-03T07:33:57.680Z,100689.59
2022-08-03T07:37:00.239Z,100687.06
2022-08-03T07:40:04.425Z,100683.84
2022-08-03T07:43:07.097Z,100678.59
2022-08-03T07:46:09.421Z,100682.22
2022-08-03T07:49:12.613Z,100690.06
2022-08-03T07:52:33.449Z,100687.38
2022-08-03T07:55:36.057Z,100673.75
2022-08-03T07:58:38.455Z,100676.72
2022-08-03T08:01:41.135Z,100674.19
2022-08-03T08:04:43.773Z,100663.44
2022-08-03T08:07:51.081Z,100661.97
2022-08-03T08:10:57.946Z,100660.72
2022-08-03T08:14:02.904Z,100669.94
2022-08-03T08:17:07.348Z,100661.69
2022-08-03T08:20:12.697Z,100664.22
2022-08-03T08:23:37.809Z,100658.81
2022-08-03T08:26:37.804Z,100664.44
2022-08-03T08:29:46.894Z,100665.13
2022-08-03T08:32:55.917Z,100662.34
2022-08-03T08:35:58.544Z,100661.25
2022-08-03T08:39:01.757Z,100662.38
2022-08-03T08:42:04.407Z,100655.97
2022-08-03T08:45:08.770Z,100656.88
2022-08-03T08:48:13.265Z,100654.88
2022-08-03T08:51:16.626Z,100665.94
2022-08-03T08:54:20.902Z,100657.25
2022-08-03T08:57:41.909Z,100650.59
2022-08-03T09:00:45.919Z,100647.22
2022-08-03T09:03:48.747Z,100645.47
2022-08-03T09:07:10.825Z,100637.78
2022-08-03T09:10:19.870Z,100642.59
2022-08-03T09:13:22.719Z,100631.03
2022-08-03T09:16:25.075Z,100633.09
2022-08-03T09:19:28.153Z,100632.53
2022-08-03T09:22:33.368Z,100640.00
2022-08-03T09:25:38.112Z,100623.47
2022-08-03T09:28:59.964Z,100621.47
2022-08-03T09:32:03.820Z,100626.41
2022-08-03T09:35:06.410Z,100625.84
2022-08-03T09:38:16.848Z,100623.63
2022-08-03T09:41:19.759Z,100618.38
2022-08-03T09:44:33.655Z,100613.81
2022-08-03T09:47:44.997Z,100604.16
2022-08-03T09:50:56.999Z,100603.94
2022-08-03T09:54:03.973Z,100600.38
2022-08-03T09:57:06.752Z,100611.75
2022-08-03T10:00:13.259Z,100599.19
2022-08-03T10:03:16.433Z,100597.22
2022-08-03T10:06:20.163Z,100595.84
2022-08-03T10:09:23.012Z,100588.94
2022-08-03T10:12:26.027Z,100590.72
2022-08-03T10:16:22.766Z,100591.69
2022-08-03T10:18:52.460Z,100584.88
2022-08-03T10:22:01.585Z,100584.38
2022-08-03T10:25:06.610Z,100579.44
2022-08-03T10:28:13.167Z,100570.53
2022-08-03T10:31:16.416Z,100571.38
2022-08-03T10:34:20.283Z,100571.84
2022-08-03T10:37:23.780Z,100574.03
2022-08-03T10:43:53.079Z,100570.38
2022-08-03T10:46:56.490Z,100571.09
2022-08-03T10:49:59.543Z,100556.06
2022-08-03T10:53:06.558Z,100556.22
2022-08-03T10:56:49.778Z,100549.25
2022-08-03T11:00:00.459Z,100554.09
2022-08-03T11:03:14.767Z,100548.13
2022-08-03T11:06:20.727Z,100544.72
2022-08-03T11:09:23.113Z,100536.59
2022-08-03T11:12:30.779Z,100527.75
2022-08-03T11:15:34.680Z,100534.53
2022-08-03T11:18:55.341Z,100526.56
2022-08-03T11:21:58.272Z,100524.03
2022-08-03T11:25:01.078Z,100519.91
2022-08-03T11:28:23.526Z,100527.88
2022-08-03T11:31:49.192Z,100521.78
2022-08-03T11:35:11.139Z,100510.34
2022-08-03T11:38:13.730Z,100511.28
2022-08-03T11:41:32.915Z,100503.69
2022-08-03T11:44:47.450Z,100504.81
2022-08-03T11:47:53.944Z,100503.56
2022-08-03T11:50:56.842Z,100494.69
2022-08-03T11:54:01.358Z,100501.41
2022-08-03T11:57:04.018Z,100498.13
2022-08-03T12:00:21.863Z,100493.59
2022-08-03T12:03:24.573Z,100493.97
2022-08-03T12:06:26.907Z,100489.25
2022-08-03T12:09:30.540Z,100496.03
2022-08-03T12:12:33.606Z,100484.63
2022-08-03T12:15:36.702Z,100490.25
2022-08-03T12:18:39.309Z,100483.38
2022-08-03T12:21:56.625Z,100484.34
2022-08-03T12:24:59.970Z,100480.91
2022-08-03T12:28:37.291Z,100480.53
2022-08-03T12:31:38.583Z,100467.94
2022-08-03T12:34:48.442Z,100470.34
2022-08-03T12:37:51.961Z,100469.44
2022-08-03T12:40:58.417Z,100463.84
2022-08-03T12:44:01.101Z,100461.94
2022-08-03T12:47:06.842Z,100456.22
2022-08-03T12:50:23.230Z,100443.56
2022-08-03T12:53:30.060Z,100461.59
2022-08-03T12:56:32.382Z,100446.59
2022-08-03T12:59:41.208Z,100445.97
2022-08-03T13:02:46.838Z,100450.16
2022-08-03T13:05:57.453Z,100445.03
2022-08-03T13:09:06.917Z,100438.03
2022-08-03T13:12:30.642Z,100441.50
2022-08-03T13:15:38.541Z,100440.56
2022-08-03T13:18:51.992Z,100439.69
2022-08-03T13:22:03.933Z,100434.63
2022-08-03T13:25:08.510Z,100425.44
2022-08-03T13:28:14.189Z,100425.75
2022-08-03T13:31:17.264Z,100423.28
2022-08-03T13:34:23.567Z,100425.19
2022-08-03T13:37:26.986Z,100422.56
2022-08-03T13:40:35.638Z,100424.22
2022-08-03T13:43:44.468Z,100422.00
2022-08-03T13:46:48.977Z,100418.28
2022-08-03T13:49:59.830Z,100412.72
2022-08-03T13:53:04.506Z,100406.56
2022-08-03T13:56:07.173Z,100405.28
2022-08-03T13:59:11.058Z,100400.13
2022-08-03T14:02:13.695Z,100401.44
2022-08-03T14:05:16.348Z,100392.38
2022-08-03T14:08:18.749Z,100393.44
2022-08-03T14:11:21.400Z,100388.28
2022-08-03T14:14:24.400Z,100381.19
2022-08-03T14:17:40.742Z,100386.53
2022-08-03T14:20:54.371Z,100384.59
2022-08-03T14:23:59.093Z,100371.50
2022-08-03T14:27:07.314Z,100376.16
2022-08-03T14:30:13.259Z,100366.84
2022-08-03T14:33:17.187Z,100369.16
2022-08-03T14:36:19.798Z,100359.22
2022-08-03T14:39:23.050Z,100368.84
2022-08-03T14:42:25.748Z,100360.59
2022-08-03T14:45:28.207Z,100361.19
2022-08-03T14:50:29.532Z,100355.28
2022-08-03T14:51:54.169Z,100359.84
2022-08-03T14:54:56.912Z,100351.31
2022-08-03T14:58:02.567Z,100346.13
2022-08-03T15:02:02.425Z,100349.66
2022-08-03T15:04:27.850Z,100351.69
2022-08-03T15:07:30.452Z,100348.56
2022-08-03T15:10:44.341Z,100350.53
2022-08-03T15:13:52.339Z,100346.16
2022-08-03T15:16:54.761Z,100348.53
2022-08-03T15:20:00.466Z,100342.63
2022-08-03T15:23:08.271Z,100345.63
2022-08-03T15:26:32.175Z,100347.19
2022-08-03T15:30:08.715Z,100345.41
2022-08-03T15:32:55.947Z,100342.91
2022-08-03T15:35:59.961Z,100350.62
2022-08-03T15:39:02.675Z,100352.00
2022-08-03T15:42:05.151Z,100335.09
2022-08-03T15:45:08.302Z,100339.50
2022-08-03T15:48:10.943Z,100334.09
2022-08-03T15:51:13.588Z,100343.16
2022-08-03T15:54:16.011Z,100336.75
2022-08-03T15:57:18.814Z,100341.25
2022-08-03T16:00:33.393Z,100335.41
2022-08-03T16:03:52.049Z,100336.16
2022-08-03T16:06:56.313Z,100335.25
2022-08-03T16:09:59.214Z,100332.75
2022-08-03T16:13:01.553Z,100335.28
2022-08-03T16:16:04.300Z,100338.81
2022-08-03T16:19:06.751Z,100328.13
2022-08-03T16:22:10.414Z,100328.44
2022-08-03T16:25:16.590Z,100333.34
2022-08-03T16:28:19.643Z,100331.31
2022-08-03T16:31:23.459Z,100331.78
2022-08-03T16:34:26.170Z,100337.09
2022-08-03T16:37:38.649Z,100333.47
2022-08-03T16:40:42.546Z,100328.34
2022-08-03T16:43:45.101Z,100325.22
2022-08-03T16:46:47.711Z,100325.66
2022-08-03T16:49:54.353Z,100330.09
2022-08-03T16:52:58.985Z,100325.75
2022-08-03T16:56:02.336Z,100335.94
2022-08-03T16:59:06.609Z,100339.59
2022-08-03T17:02:15.839Z,100334.28
2022-08-03T17:05:18.863Z,100332.34
2022-08-03T17:08:26.939Z,100341.47
2022-08-03T17:11:33.057Z,100340.84
2022-08-03T17:14:35.636Z,100342.88
2022-08-03T17:17:53.371Z,100349.16
2022-08-03T17:20:57.757Z,100348.66
2022-08-03T17:24:12.014Z,100347.56
2022-08-03T17:28:42.419Z,100357.84
2022-08-03T17:30:59.798Z,100361.06
2022-08-03T17:34:04.595Z,100364.41
2022-08-03T17:37:27.335Z,100370.81
2022-08-03T17:40:32.019Z,100371.19
2022-08-03T17:44:12.957Z,100363.31
2022-08-03T17:46:56.955Z,100366.66
2022-08-03T17:50:01.434Z,100372.53
2022-08-03T17:53:07.606Z,100368.81
2022-08-03T17:56:38.825Z,100368.31
2022-08-03T18:00:22.911Z,100362.78
2022-08-03T18:03:57.713Z,100365.72
2022-08-03T18:07:12.160Z,100364.84
2022-08-03T18:10:17.037Z,100365.78
2022-08-03T18:13:23.924Z,100375.03
2022-08-03T18:16:29.935Z,100377.47
2022-08-03T18:20:03.530Z,100376.41
2022-08-03T18:22:59.781Z,100376.81
2022-08-03T18:26:12.219Z,100382.69
2022-08-03T18:29:15.363Z,100381.12
2022-08-03T18:32:18.856Z,100391.88
2022-08-03T18:35:24.727Z,100397.31
2022-08-03T18:38:29.535Z,100386.72
2022-08-03T18:41:34.790Z,100405.84
2022-08-03T18:44:54.313Z,100400.28
2022-08-03T18:48:22.637Z,100406.06
2022-08-03T18:51:42.936Z,100406.97
2022-08-03T18:55:21.438Z,100411.88
2022-08-03T18:58:32.001Z,100419.66
2022-08-03T19:01:59.845Z,100419.87
2022-08-03T19:05:06.848Z,100418.81
2022-08-03T19:08:15.928Z,100428.38
2022-08-03T19:11:28.019Z,100422.25
2022-08-03T19:14:39.229Z,100433.13
2022-08-03T19:17:53.744Z,100432.16
2022-08-03T19:20:57.529Z,100438.19
2022-08-03T19:24:09.519Z,100444.41
2022-08-03T19:27:13.190Z,100446.78
2022-08-03T19:30:39.049Z,100453.53
2022-08-03T19:33:59.873Z,100446.00
2022-08-03T19:37:04.277Z,100453.53
2022-08-03T19:40:10.803Z,100450.75
2022-08-03T19:43:21.405Z,100451.75
2022-08-03T19:46:31.207Z,100452.59
2022-08-03T19:50:05.676Z,100458.75
2022-08-03T19:53:02.420Z,100458.66
2022-08-03T19:56:06.103Z,100460.28
2022-08-03T19:59:13.242Z,100465.50
2022-08-03T20:02:17.981Z,100469.00
2022-08-03T20:05:30.195Z,100460.72
2022-08-03T20:08:51.576Z,100468.16
2022-08-03T20:11:55.006Z,100468.41
2022-08-03T20:14:57.763Z,100465.62
2022-08-03T20:18:00.535Z,100461.94
2022-08-03T20:21:06.086Z,100472.44
2022-08-03T20:24:24.471Z,100470.59
2022-08-03T20:27:30.278Z,100461.31
2022-08-03T20:30:34.138Z,100475.03
2022-08-03T20:33:46.702Z,100469.31
2022-08-03T20:36:52.004Z,100465.91
2022-08-03T20:39:54.465Z,100467.44
2022-08-03T20:42:57.138Z,100475.41
2022-08-03T20:46:29.133Z,100467.69
2022-08-03T20:49:23.051Z,100473.56
2022-08-03T20:52:26.123Z,100468.63
2022-08-03T20:55:48.145Z,100466.66
2022-08-03T20:58:55.114Z,100466.06
2022-08-03T21:01:57.729Z,100465.50
2022-08-03T21:05:03.459Z,100466.63
2022-08-03T21:08:11.993Z,100461.41
2022-08-03T21:11:20.155Z,100462.81
2022-08-03T21:14:30.511Z,100465.97
2022-08-03T21:17:41.532Z,100469.72
2022-08-03T21:20:46.099Z,100470.81
2022-08-03T21:23:49.941Z,100472.19
2022-08-03T21:26:56.290Z,100476.09
2022-08-03T21:30:03.828Z,100474.66
2022-08-03T21:33:07.483Z,100475.19
2022-08-03T21:36:10.097Z,100479.91
2022-08-03T21:39:12.801Z,100484.03
2022-08-03T21:42:15.171Z,100486.38
2022-08-03T21:45:17.990Z,100485.91
2022-08-03T21:48:21.625Z,100492.72
2022-08-03T21:51:25.265Z,100496.00
2022-08-03T21:54:33.445Z,100500.03
2022-08-03T21:57:38.452Z,100509.44
2022-08-03T22:00:42.911Z,100509.19
2022-08-03T22:03:52.863Z,100511.59
2022-08-03T22:06:56.680Z,100512.09
2022-08-03T22:10:00.996Z,100511.75
2022-08-03T22:13:03.408Z,100507.81
2022-08-03T22:16:06.471Z,100513.34
2022-08-03T22:19:08.938Z,100506.72
2022-08-03T22:22:13.993Z,100519.28
2022-08-03T22:25:17.120Z,100512.53
2022-08-03T22:28:21.868Z,100517.94
2022-08-03T22:31:56.969Z,100527.47
2022-08-03T22:34:51.788Z,100523.62
2022-08-03T22:37:54.999Z,100515.69
2022-08-03T22:40:57.812Z,100523.88
2022-08-03T22:44:00.470Z,100530.66
2022-08-03T22:47:07.317Z,100525.00
2022-08-03T22:50:33.371Z,100532.09
2022-08-03T22:53:34.414Z,100530.06
2022-08-03T22:56:37.654Z,100534.72
2022-08-03T22:59:42.105Z,100527.72
2022-08-03T23:02:45.643Z,100537.72
2022-08-03T23:06:02.319Z,100535.44
2022-08-03T23:09:06.964Z,100542.66
2022-08-03T23:12:15.549Z,100537.00
2022-08-03T23:15:18.658Z,100550.62
2022-08-03T23:18:21.971Z,100546.03
2022-08-03T23:21:52.913Z,100540.84
2022-08-03T23:24:48.585Z,100544.47
2022-08-03T23:28:05.461Z,100542.31
2022-08-03T23:31:08.925Z,100548.91
2022-08-03T23:34:33.796Z,100550.59
2022-08-03T23:38:21.711Z,100554.53
2022-08-03T23:41:02.334Z,100554.53
2022-08-03T23:44:05.167Z,100561.38
2022-08-03T23:47:07.461Z,100558.25
2022-08-03T23:50:10.163Z,100557.88
2022-08-03T23:53:12.572Z,100557.38
2022-08-03T23:56:23.693Z,100548.41
2022-08-03T23:59:41.136Z,100549.09
